createdAt,value
2018-03-27T00:01:10.636Z,1010.83
2018-03-27T00:02:10.634Z,1010.84
2018-03-27T00:04:03.530Z,1010.82
2018-03-27T00:05:03.542Z,1010.86
2018-03-27T00:06:56.455Z,1010.82
2018-03-27T00:08:03.572Z,1010.77
2018-03-27T00:09:49.365Z,1010.76
2018-03-27T00:10:49.361Z,1010.76
2018-03-27T00:12:42.261Z,1010.75
2018-03-27T00:13:42.275Z,1010.72
2018-03-27T00:15:35.190Z,1010.72
2018-03-27T00:16:35.186Z,1010.69
2018-03-27T00:18:28.085Z,1010.65
2018-03-27T00:19:28.100Z,1010.66
2018-03-27T00:21:21.011Z,1010.68
2018-03-27T00:22:28.128Z,1010.70
2018-03-27T00:24:21.021Z,1010.63
2018-03-27T00:25:13.920Z,1010.66
2018-03-27T00:27:06.837Z,1010.63
2018-03-27T00:28:06.837Z,1010.65
2018-03-27T00:29:59.753Z,1010.65
2018-03-27T00:30:59.748Z,1010.68
2018-03-27T00:32:52.644Z,1010.70
2018-03-27T00:33:52.665Z,1010.68
2018-03-27T00:35:45.571Z,1010.71
2018-03-27T00:36:45.566Z,1010.68
2018-03-27T00:38:38.464Z,1010.65
2018-03-27T00:39:38.477Z,1010.66
2018-03-27T00:41:31.391Z,1010.64
2018-03-27T00:42:31.387Z,1010.66
2018-03-27T00:44:24.288Z,1010.68
2018-03-27T00:45:24.298Z,1010.69
2018-03-27T00:47:17.211Z,1010.71
2018-03-27T00:48:17.207Z,1010.68
2018-03-27T00:50:10.281Z,1010.68
2018-03-27T00:51:10.279Z,1010.68
2018-03-27T00:53:03.178Z,1010.67
2018-03-27T00:54:03.194Z,1010.68
2018-03-27T00:55:56.112Z,1010.68
2018-03-27T00:56:56.112Z,1010.66
2018-03-27T00:58:49.007Z,1010.65
2018-03-27T00:59:49.024Z,1010.66
2018-03-27T01:01:41.942Z,1010.64
2018-03-27T01:02:41.935Z,1010.61
2018-03-27T01:04:34.867Z,1010.57
2018-03-27T01:05:34.853Z,1010.56
2018-03-27T01:07:27.763Z,1010.53
2018-03-27T01:08:27.763Z,1010.55
2018-03-27T01:10:20.671Z,1010.52
2018-03-27T01:11:20.672Z,1010.51
2018-03-27T01:13:13.564Z,1010.48
2018-03-27T01:14:13.579Z,1010.51
2018-03-27T01:16:06.491Z,1010.51
2018-03-27T01:17:06.489Z,1010.52
2018-03-27T01:18:59.385Z,1010.50
2018-03-27T01:19:59.455Z,1010.52
2018-03-27T01:21:52.313Z,1010.51
2018-03-27T01:22:52.308Z,1010.51
2018-03-27T01:24:45.203Z,1010.49
2018-03-27T01:25:45.217Z,1010.45
2018-03-27T01:27:38.130Z,1010.47
2018-03-27T01:28:38.128Z,1010.47
2018-03-27T01:30:31.046Z,1010.44
2018-03-27T01:31:31.038Z,1010.42
2018-03-27T01:33:23.935Z,1010.43
2018-03-27T01:34:23.948Z,1010.43
2018-03-27T01:36:17.070Z,1010.47
2018-03-27T01:37:17.048Z,1010.47
2018-03-27T01:39:09.952Z,1010.50
2018-03-27T01:40:09.950Z,1010.50
2018-03-27T01:42:02.870Z,1010.47
2018-03-27T01:43:02.860Z,1010.45
2018-03-27T01:44:55.762Z,1010.40
2018-03-27T01:45:55.778Z,1010.37
2018-03-27T01:47:48.689Z,1010.34
2018-03-27T01:48:48.686Z,1010.32
2018-03-27T01:50:41.600Z,1010.29
2018-03-27T01:51:41.594Z,1010.31
2018-03-27T01:53:34.492Z,1010.25
2018-03-27T01:54:34.508Z,1010.24
2018-03-27T01:56:27.420Z,1010.20
2018-03-27T01:57:27.416Z,1010.18
2018-03-27T01:59:20.313Z,1010.16
2018-03-27T02:00:20.326Z,1010.20
2018-03-27T02:02:13.245Z,1010.24
2018-03-27T02:03:13.239Z,1010.18
2018-03-27T02:05:06.132Z,1010.19
2018-03-27T02:06:06.174Z,1010.16
2018-03-27T02:07:59.060Z,1010.17
2018-03-27T02:08:59.054Z,1010.15
2018-03-27T02:10:51.970Z,1010.10
2018-03-27T02:11:51.965Z,1010.09
2018-03-27T02:13:44.863Z,1010.08
2018-03-27T02:14:44.876Z,1010.05
2018-03-27T02:16:38.783Z,1010.09
2018-03-27T02:17:38.778Z,1010.12
2018-03-27T02:19:31.672Z,1010.12
2018-03-27T02:20:31.689Z,1010.13
2018-03-27T02:22:24.607Z,1010.09
2018-03-27T02:23:24.603Z,1010.12
2018-03-27T02:25:17.504Z,1010.11
2018-03-27T02:26:17.511Z,1010.07
2018-03-27T02:28:10.428Z,1010.04
2018-03-27T02:29:10.422Z,1010.11
2018-03-27T02:31:03.334Z,1010.06
2018-03-27T02:32:03.337Z,1010.05
2018-03-27T02:34:03.543Z,1010.04
2018-03-27T02:35:03.560Z,1010.05
2018-03-27T02:36:49.351Z,1010.05
2018-03-27T02:37:56.476Z,1010.07
2018-03-27T02:39:42.250Z,1010.03
2018-03-27T02:40:42.259Z,1010.01
2018-03-27T02:42:35.173Z,1010.02
2018-03-27T02:43:35.167Z,1010.01
2018-03-27T02:45:28.061Z,1009.97
2018-03-27T02:46:28.075Z,1009.94
2018-03-27T02:48:20.990Z,1009.94
2018-03-27T02:49:20.986Z,1009.92
2018-03-27T02:51:13.899Z,1009.88
2018-03-27T02:52:13.894Z,1009.90
2018-03-27T02:54:06.790Z,1009.88
2018-03-27T02:55:06.804Z,1009.91
2018-03-27T02:56:59.718Z,1009.92
2018-03-27T02:57:59.709Z,1009.91
2018-03-27T02:59:52.602Z,1009.96
2018-03-27T03:00:52.619Z,1009.93
2018-03-27T03:02:45.532Z,1009.93
2018-03-27T03:03:45.528Z,1009.95
2018-03-27T03:05:38.421Z,1009.93
2018-03-27T03:06:38.434Z,1009.90
2018-03-27T03:08:31.359Z,1009.90
2018-03-27T03:09:31.345Z,1009.88
2018-03-27T03:11:24.258Z,1009.91
2018-03-27T03:12:24.254Z,1009.94
2018-03-27T03:14:17.365Z,1009.89
2018-03-27T03:15:17.379Z,1009.88
2018-03-27T03:17:10.292Z,1009.91
2018-03-27T03:18:10.290Z,1009.89
2018-03-27T03:20:03.187Z,1009.87
2018-03-27T03:21:03.203Z,1009.87
2018-03-27T03:22:56.115Z,1009.85
2018-03-27T03:23:56.108Z,1009.84
2018-03-27T03:25:49.004Z,1009.82
2018-03-27T03:26:49.016Z,1009.82
2018-03-27T03:28:41.933Z,1009.83
2018-03-27T03:29:41.930Z,1009.81
2018-03-27T03:31:34.855Z,1009.81
2018-03-27T03:32:34.835Z,1009.83
2018-03-27T03:34:27.753Z,1009.83
2018-03-27T03:35:27.751Z,1009.84
2018-03-27T03:37:20.662Z,1009.81
2018-03-27T03:38:20.655Z,1009.75
2018-03-27T03:40:13.553Z,1009.76
2018-03-27T03:41:13.569Z,1009.72
2018-03-27T03:43:06.488Z,1009.72
2018-03-27T03:44:06.479Z,1009.72
2018-03-27T03:45:59.374Z,1009.77
2018-03-27T03:46:59.386Z,1009.77
2018-03-27T03:48:52.299Z,1009.79
2018-03-27T03:49:52.295Z,1009.80
2018-03-27T03:51:45.221Z,1009.80
2018-03-27T03:52:45.206Z,1009.77
2018-03-27T03:54:38.251Z,1009.81
2018-03-27T03:55:38.276Z,1009.82
2018-03-27T03:57:31.180Z,1009.81
2018-03-27T03:58:31.181Z,1009.82
2018-03-27T04:00:24.133Z,1009.78
2018-03-27T04:01:24.090Z,1009.80
2018-03-27T04:03:17.001Z,1009.80
2018-03-27T04:04:16.996Z,1009.78
2018-03-27T04:06:09.892Z,1009.81
2018-03-27T04:07:09.907Z,1009.79
2018-03-27T04:09:02.821Z,1009.74
2018-03-27T04:10:02.819Z,1009.71
2018-03-27T04:11:55.976Z,1009.68
2018-03-27T04:12:55.960Z,1009.66
2018-03-27T04:14:48.857Z,1009.64
2018-03-27T04:15:48.872Z,1009.64
2018-03-27T04:17:41.786Z,1009.60
2018-03-27T04:18:41.807Z,1009.55
2018-03-27T04:20:34.675Z,1009.58
2018-03-27T04:21:34.700Z,1009.55
2018-03-27T04:23:27.607Z,1009.55
2018-03-27T04:24:27.601Z,1009.58
2018-03-27T04:26:20.497Z,1009.58
2018-03-27T04:27:20.511Z,1009.56
2018-03-27T04:29:13.427Z,1009.53
2018-03-27T04:30:13.426Z,1009.49
2018-03-27T04:32:06.357Z,1009.50
2018-03-27T04:33:06.336Z,1009.50
2018-03-27T04:34:59.307Z,1009.46
2018-03-27T04:35:59.254Z,1009.48
2018-03-27T04:37:52.160Z,1009.50
2018-03-27T04:38:52.162Z,1009.49
2018-03-27T04:40:45.102Z,1009.50
2018-03-27T04:41:45.066Z,1009.49
2018-03-27T04:43:37.981Z,1009.48
2018-03-27T04:44:37.976Z,1009.48
2018-03-27T04:46:30.878Z,1009.48
2018-03-27T04:47:30.891Z,1009.50
2018-03-27T04:49:23.803Z,1009.54
2018-03-27T04:50:23.800Z,1009.56
2018-03-27T04:52:16.697Z,1009.57
2018-03-27T04:53:16.711Z,1009.54
2018-03-27T04:55:09.624Z,1009.54
2018-03-27T04:56:09.619Z,1009.55
2018-03-27T04:58:02.535Z,1009.50
2018-03-27T04:59:02.530Z,1009.49
2018-03-27T05:00:55.425Z,1009.53
2018-03-27T05:01:55.440Z,1009.54
2018-03-27T05:03:48.350Z,1009.56
2018-03-27T05:04:48.347Z,1009.55
2018-03-27T05:06:41.246Z,1009.57
2018-03-27T05:07:41.257Z,1009.59
2018-03-27T05:09:34.171Z,1009.61
2018-03-27T05:10:34.168Z,1009.58
2018-03-27T05:12:27.062Z,1009.59
2018-03-27T05:13:27.077Z,1009.56
2018-03-27T05:15:19.997Z,1009.53
2018-03-27T05:16:19.988Z,1009.50
2018-03-27T05:18:12.906Z,1009.50
2018-03-27T05:19:12.899Z,1009.49
2018-03-27T05:21:05.795Z,1009.42
2018-03-27T05:22:05.811Z,1009.46
2018-03-27T05:23:58.725Z,1009.43
2018-03-27T05:24:58.719Z,1009.45
2018-03-27T05:26:51.615Z,1009.44
2018-03-27T05:27:51.630Z,1009.45
2018-03-27T05:29:44.540Z,1009.44
2018-03-27T05:30:44.539Z,1009.45
2018-03-27T05:32:37.432Z,1009.45
2018-03-27T05:33:37.446Z,1009.46
2018-03-27T05:35:30.359Z,1009.43
2018-03-27T05:36:30.355Z,1009.43
2018-03-27T05:38:23.271Z,1009.43
2018-03-27T05:39:23.267Z,1009.44
2018-03-27T05:41:16.165Z,1009.46
2018-03-27T05:42:16.184Z,1009.48
2018-03-27T05:44:09.095Z,1009.50
2018-03-27T05:45:09.087Z,1009.51
2018-03-27T05:47:01.987Z,1009.55
2018-03-27T05:48:01.998Z,1009.55
2018-03-27T05:49:54.913Z,1009.58
2018-03-27T05:50:54.907Z,1009.56
2018-03-27T05:52:48.011Z,1009.58
2018-03-27T05:53:48.026Z,1009.56
2018-03-27T05:55:40.935Z,1009.53
2018-03-27T05:56:40.932Z,1009.56
2018-03-27T05:58:33.852Z,1009.60
2018-03-27T05:59:33.847Z,1009.58
2018-03-27T06:01:26.742Z,1009.54
2018-03-27T06:02:26.761Z,1009.54
2018-03-27T06:04:19.671Z,1009.48
2018-03-27T06:05:19.667Z,1009.51
2018-03-27T06:07:12.636Z,1009.50
2018-03-27T06:08:12.579Z,1009.53
2018-03-27T06:10:05.491Z,1009.57
2018-03-27T06:11:05.488Z,1009.60
2018-03-27T06:12:58.382Z,1009.57
2018-03-27T06:13:58.397Z,1009.57
2018-03-27T06:15:51.310Z,1009.58
2018-03-27T06:16:51.309Z,1009.58
2018-03-27T06:18:44.225Z,1009.57
2018-03-27T06:19:44.215Z,1009.53
2018-03-27T06:21:37.118Z,1009.51
2018-03-27T06:22:37.131Z,1009.49
2018-03-27T06:24:30.048Z,1009.51
2018-03-27T06:25:30.042Z,1009.45
2018-03-27T06:27:22.940Z,1009.46
2018-03-27T06:28:22.953Z,1009.46
2018-03-27T06:30:15.868Z,1009.43
2018-03-27T06:31:15.865Z,1009.44
2018-03-27T06:33:08.760Z,1009.43
2018-03-27T06:34:08.775Z,1009.44
2018-03-27T06:36:01.688Z,1009.42
2018-03-27T06:37:01.686Z,1009.40
2018-03-27T06:38:54.602Z,1009.37
2018-03-27T06:39:54.598Z,1009.38
2018-03-27T06:41:47.494Z,1009.41
2018-03-27T06:42:47.507Z,1009.41
2018-03-27T06:44:40.421Z,1009.47
2018-03-27T06:45:40.420Z,1009.47
2018-03-27T06:47:33.315Z,1009.47
2018-03-27T06:48:33.336Z,1009.44
2018-03-27T06:50:26.244Z,1009.45
2018-03-27T06:51:26.241Z,1009.45
2018-03-27T06:53:19.137Z,1009.45
2018-03-27T06:54:19.154Z,1009.42
2018-03-27T06:56:12.079Z,1009.42
2018-03-27T06:57:12.071Z,1009.42
2018-03-27T06:59:05.036Z,1009.44
2018-03-27T07:00:04.989Z,1009.35
2018-03-27T07:01:57.884Z,1009.42
2018-03-27T07:02:57.899Z,1009.42
2018-03-27T07:04:50.814Z,1009.42
2018-03-27T07:05:50.819Z,1009.45
2018-03-27T07:07:43.737Z,1009.41
2018-03-27T07:08:43.726Z,1009.39
2018-03-27T07:10:36.696Z,1009.37
2018-03-27T07:11:36.678Z,1009.39
2018-03-27T07:13:29.572Z,1009.39
2018-03-27T07:14:29.553Z,1009.35
2018-03-27T07:16:22.470Z,1009.34
2018-03-27T07:17:22.482Z,1009.34
2018-03-27T07:19:15.426Z,1009.25
2018-03-27T07:20:15.381Z,1009.25
2018-03-27T07:22:08.277Z,1009.24
2018-03-27T07:23:08.295Z,1009.27
2018-03-27T07:25:01.250Z,1009.29
2018-03-27T07:26:01.252Z,1009.30
2018-03-27T07:27:54.146Z,1009.24
2018-03-27T07:28:54.161Z,1009.25
2018-03-27T07:30:47.075Z,1009.23
2018-03-27T07:31:47.074Z,1009.25
2018-03-27T07:33:39.972Z,1009.27
2018-03-27T07:34:39.989Z,1009.26
2018-03-27T07:36:32.907Z,1009.21
2018-03-27T07:37:32.907Z,1009.19
2018-03-27T07:39:25.891Z,1009.16
2018-03-27T07:40:25.854Z,1009.15
2018-03-27T07:42:18.749Z,1009.14
2018-03-27T07:43:18.765Z,1009.12
2018-03-27T07:45:11.717Z,1009.12
2018-03-27T07:46:11.722Z,1009.15
2018-03-27T07:48:04.773Z,1009.13
2018-03-27T07:49:04.790Z,1009.15
2018-03-27T07:50:57.734Z,1009.15
2018-03-27T07:51:58.921Z,1009.13
2018-03-27T07:53:51.122Z,1009.12
2018-03-27T07:54:51.139Z,1009.16
2018-03-27T07:56:44.057Z,1009.13
2018-03-27T07:57:44.056Z,1009.15
2018-03-27T07:59:37.193Z,1009.11
2018-03-27T08:00:37.195Z,1009.10
2018-03-27T08:02:30.099Z,1009.13
2018-03-27T08:03:30.120Z,1009.12
2018-03-27T08:05:23.046Z,1009.11
2018-03-27T08:06:23.046Z,1009.10
2018-03-27T08:08:15.949Z,1009.05
2018-03-27T08:09:15.960Z,1009.11
2018-03-27T08:11:09.451Z,1009.07
2018-03-27T08:12:09.375Z,1009.02
2018-03-27T08:14:02.276Z,1009.09
2018-03-27T08:15:02.292Z,1009.10
2018-03-27T08:16:55.212Z,1009.06
2018-03-27T08:17:55.210Z,1009.10
2018-03-27T08:19:48.128Z,1009.03
2018-03-27T08:20:48.128Z,1009.02
2018-03-27T08:22:41.065Z,1009.01
2018-03-27T08:23:41.083Z,1008.95
2018-03-27T08:25:34.000Z,1008.94
2018-03-27T08:26:34.001Z,1008.95
2018-03-27T08:28:26.902Z,1008.93
2018-03-27T08:29:26.921Z,1008.94
2018-03-27T08:31:19.840Z,1008.90
2018-03-27T08:32:19.840Z,1008.90
2018-03-27T08:34:12.925Z,1008.91
2018-03-27T08:35:12.945Z,1008.91
2018-03-27T08:37:05.865Z,1008.93
2018-03-27T08:38:05.865Z,1008.91
2018-03-27T08:39:58.791Z,1008.86
2018-03-27T08:40:58.783Z,1008.84
2018-03-27T08:42:51.776Z,1008.84
2018-03-27T08:43:51.780Z,1008.80
2018-03-27T08:45:44.698Z,1008.78
2018-03-27T08:46:44.698Z,1008.77
2018-03-27T08:48:37.619Z,1008.73
2018-03-27T08:49:37.617Z,1008.72
2018-03-27T08:51:30.534Z,1008.72
2018-03-27T08:52:30.534Z,1008.71
2018-03-27T08:54:23.610Z,1008.70
2018-03-27T08:55:23.644Z,1008.70
2018-03-27T08:57:16.549Z,1008.71
2018-03-27T08:58:16.546Z,1008.70
2018-03-27T09:00:09.470Z,1008.69
2018-03-27T09:01:09.469Z,1008.69
2018-03-27T09:03:02.374Z,1008.69
2018-03-27T09:04:02.391Z,1008.65
2018-03-27T09:05:55.309Z,1008.65
2018-03-27T09:06:55.312Z,1008.64
2018-03-27T09:08:48.209Z,1008.59
2018-03-27T09:09:48.228Z,1008.55
2018-03-27T09:11:42.296Z,1008.55
2018-03-27T09:12:41.879Z,1008.54
2018-03-27T09:14:34.784Z,1008.50
2018-03-27T09:15:34.803Z,1008.51
2018-03-27T09:17:27.734Z,1008.46
2018-03-27T09:18:27.724Z,1008.47
2018-03-27T09:20:20.906Z,1008.43
2018-03-27T09:21:20.644Z,1008.42
2018-03-27T09:23:13.554Z,1008.47
2018-03-27T09:24:13.574Z,1008.47
2018-03-27T09:26:06.583Z,1008.48
2018-03-27T09:27:06.501Z,1008.46
2018-03-27T09:29:01.727Z,1008.46
2018-03-27T09:29:59.477Z,1008.44
2018-03-27T09:31:52.666Z,1008.42
2018-03-27T09:32:52.396Z,1008.44
2018-03-27T09:34:45.402Z,1008.39
2018-03-27T09:35:45.883Z,1008.39
2018-03-27T09:37:38.501Z,1008.37
2018-03-27T09:38:38.454Z,1008.31
2018-03-27T09:40:31.373Z,1008.30
2018-03-27T09:41:31.373Z,1008.31
2018-03-27T09:43:24.277Z,1008.29
2018-03-27T09:44:24.338Z,1008.30
2018-03-27T09:46:17.554Z,1008.27
2018-03-27T09:47:17.273Z,1008.30
2018-03-27T09:49:10.192Z,1008.28
2018-03-27T09:50:10.209Z,1008.31
2018-03-27T09:52:03.135Z,1008.30
2018-03-27T09:53:03.144Z,1008.28
2018-03-27T09:54:56.173Z,1008.23
2018-03-27T09:55:56.070Z,1008.23
2018-03-27T09:57:49.145Z,1008.18
2018-03-27T09:58:49.020Z,1008.18
2018-03-27T10:00:41.940Z,1008.14
2018-03-27T10:01:41.979Z,1008.10
2018-03-27T10:03:34.844Z,1008.17
2018-03-27T10:04:34.863Z,1008.14
2018-03-27T10:06:27.787Z,1008.10
2018-03-27T10:07:27.786Z,1008.11
2018-03-27T10:09:20.690Z,1008.04
2018-03-27T10:10:20.712Z,1008.01
2018-03-27T10:12:13.636Z,1007.98
2018-03-27T10:13:13.643Z,1007.97
2018-03-27T10:15:06.605Z,1007.99
2018-03-27T10:16:06.563Z,1007.96
2018-03-27T10:17:59.487Z,1007.99
2018-03-27T10:18:59.580Z,1007.94
2018-03-27T10:20:52.410Z,1007.93
2018-03-27T10:21:52.430Z,1007.94
2018-03-27T10:23:45.315Z,1007.85
2018-03-27T10:24:45.334Z,1007.89
2018-03-27T10:26:38.256Z,1007.85
2018-03-27T10:27:38.260Z,1007.84
2018-03-27T10:29:31.159Z,1007.85
2018-03-27T10:30:31.509Z,1007.86
2018-03-27T10:33:24.138Z,1007.78
2018-03-27T10:35:17.016Z,1007.74
2018-03-27T10:36:17.033Z,1007.75
2018-03-27T10:38:09.958Z,1007.71
2018-03-27T10:39:10.052Z,1007.72
2018-03-27T10:41:02.901Z,1007.57
2018-03-27T10:42:02.903Z,1007.61
2018-03-27T10:43:55.806Z,1007.57
2018-03-27T10:44:55.826Z,1007.57
2018-03-27T10:46:48.749Z,1007.57
2018-03-27T10:47:48.744Z,1007.56
2018-03-27T10:49:41.668Z,1007.52
2018-03-27T10:50:41.689Z,1007.51
2018-03-27T10:52:34.808Z,1007.51
2018-03-27T10:53:34.631Z,1007.51
2018-03-27T10:55:27.576Z,1007.41
2018-03-27T10:56:27.558Z,1007.46
2018-03-27T10:58:20.481Z,1007.38
2018-03-27T10:59:20.480Z,1007.40
2018-03-27T11:01:13.460Z,1007.38
2018-03-27T11:02:13.430Z,1007.36
2018-03-27T11:04:07.177Z,1007.29
2018-03-27T11:05:06.367Z,1007.29
2018-03-27T11:06:59.291Z,1007.29
2018-03-27T11:07:59.317Z,1007.30
2018-03-27T11:09:52.194Z,1007.31
2018-03-27T11:10:52.457Z,1007.26
2018-03-27T11:12:45.261Z,1007.23
2018-03-27T11:13:45.257Z,1007.25
2018-03-27T11:15:38.160Z,1007.21
2018-03-27T11:16:38.219Z,1007.23
2018-03-27T11:18:31.173Z,1007.21
2018-03-27T11:19:31.112Z,1007.15
2018-03-27T11:21:24.041Z,1007.12
2018-03-27T11:22:24.043Z,1007.11
2018-03-27T11:24:16.949Z,1007.03
2018-03-27T11:25:16.971Z,1007.13
2018-03-27T11:27:09.894Z,1007.08
2018-03-27T11:28:09.891Z,1007.14
2018-03-27T11:30:02.803Z,1007.06
2018-03-27T11:31:02.820Z,1007.06
2018-03-27T11:32:55.942Z,1007.02
2018-03-27T11:33:55.936Z,1006.99
2018-03-27T11:35:48.842Z,1006.97
2018-03-27T11:36:48.930Z,1006.96
2018-03-27T11:38:41.849Z,1006.84
2018-03-27T11:39:41.834Z,1006.90
2018-03-27T11:41:34.795Z,1006.82
2018-03-27T11:42:34.773Z,1006.72
2018-03-27T11:44:27.650Z,1006.70
2018-03-27T11:45:27.672Z,1006.70
2018-03-27T11:47:20.606Z,1006.65
2018-03-27T11:48:20.653Z,1006.67
2018-03-27T11:50:13.472Z,1006.60
2018-03-27T11:51:13.527Z,1006.55
2018-03-27T11:53:06.462Z,1006.57
2018-03-27T11:54:06.429Z,1006.52
2018-03-27T11:55:59.378Z,1006.50
2018-03-27T11:56:59.397Z,1006.46
2018-03-27T11:58:52.334Z,1006.35
2018-03-27T11:59:52.316Z,1006.37
2018-03-27T12:01:45.231Z,1006.31
2018-03-27T12:02:45.199Z,1006.36
2018-03-27T12:04:38.254Z,1006.37
2018-03-27T12:05:38.274Z,1006.32
2018-03-27T12:07:31.211Z,1006.24
2018-03-27T12:08:31.201Z,1006.19
2018-03-27T12:10:24.139Z,1006.19
2018-03-27T12:11:24.173Z,1006.22
2018-03-27T12:13:17.106Z,1006.18
2018-03-27T12:14:17.090Z,1006.14
2018-03-27T12:16:09.991Z,1006.11
2018-03-27T12:17:10.017Z,1006.08
2018-03-27T12:19:03.923Z,1005.97
2018-03-27T12:20:03.916Z,1005.99
2018-03-27T12:21:56.935Z,1006.01
2018-03-27T12:22:56.940Z,1005.91
2018-03-27T12:24:49.807Z,1005.93
2018-03-27T12:25:49.864Z,1005.89
2018-03-27T12:27:42.704Z,1005.82
2018-03-27T12:28:42.716Z,1005.78
2018-03-27T12:30:35.608Z,1005.68
2018-03-27T12:31:35.627Z,1005.69
2018-03-27T12:33:28.569Z,1005.62
2018-03-27T12:34:28.572Z,1005.56
2018-03-27T12:36:21.511Z,1005.58
2018-03-27T12:37:21.506Z,1005.57
2018-03-27T12:39:14.448Z,1005.61
2018-03-27T12:40:14.449Z,1005.60
2018-03-27T12:42:07.376Z,1005.56
2018-03-27T12:44:20.282Z,1005.57
2018-03-27T12:45:20.310Z,1005.57
2018-03-27T12:47:13.226Z,1005.51
2018-03-27T12:48:13.232Z,1005.51
2018-03-27T12:50:06.141Z,1005.53
2018-03-27T12:51:06.159Z,1005.51
2018-03-27T12:52:59.090Z,1005.50
2018-03-27T12:53:59.091Z,1005.50
2018-03-27T12:55:52.029Z,1005.51
2018-03-27T12:56:52.042Z,1005.49
2018-03-27T12:58:44.952Z,1005.49
2018-03-27T12:59:44.951Z,1005.52
2018-03-27T13:01:37.859Z,1005.52
2018-03-27T13:02:37.881Z,1005.45
2018-03-27T13:04:30.807Z,1005.43
2018-03-27T13:05:30.829Z,1005.46
2018-03-27T13:07:24.235Z,1005.43
2018-03-27T13:08:24.236Z,1005.40
2018-03-27T13:10:17.146Z,1005.36
2018-03-27T13:11:17.168Z,1005.36
2018-03-27T13:13:10.642Z,1005.32
2018-03-27T13:14:10.745Z,1005.32
2018-03-27T13:16:03.474Z,1005.31
2018-03-27T13:17:03.496Z,1005.30
2018-03-27T13:18:56.453Z,1005.27
2018-03-27T13:19:56.431Z,1005.24
2018-03-27T13:21:49.928Z,1005.18
2018-03-27T13:22:49.866Z,1005.13
2018-03-27T13:24:42.809Z,1005.14
2018-03-27T13:25:42.800Z,1005.12
2018-03-27T13:27:36.252Z,1005.08
2018-03-27T13:28:36.258Z,1005.06
2018-03-27T13:30:29.168Z,1005.04
2018-03-27T13:31:29.207Z,1005.02
2018-03-27T13:33:22.291Z,1005.00
2018-03-27T13:34:22.295Z,1005.03
2018-03-27T13:36:15.206Z,1004.97
2018-03-27T13:37:15.228Z,1005.00
2018-03-27T13:39:08.166Z,1004.91
2018-03-27T13:40:08.167Z,1004.93
2018-03-27T13:42:01.247Z,1004.91
2018-03-27T13:43:01.273Z,1004.85
2018-03-27T13:44:54.203Z,1004.88
2018-03-27T13:45:54.210Z,1004.89
2018-03-27T13:47:47.138Z,1004.86
2018-03-27T13:48:47.142Z,1004.82
2018-03-27T13:50:40.053Z,1004.78
2018-03-27T13:51:40.073Z,1004.76
2018-03-27T13:53:33.007Z,1004.68
2018-03-27T13:54:33.005Z,1004.69
2018-03-27T13:56:25.914Z,1004.69
2018-03-27T13:57:25.938Z,1004.59
2018-03-27T13:59:18.872Z,1004.61
2018-03-27T14:00:18.929Z,1004.54
2018-03-27T14:02:11.962Z,1004.52
2018-03-27T14:03:11.983Z,1004.46
2018-03-27T14:05:04.910Z,1004.50
2018-03-27T14:06:04.965Z,1004.46
2018-03-27T14:07:57.850Z,1004.40
2018-03-27T14:08:57.846Z,1004.42
2018-03-27T14:10:50.762Z,1004.38
2018-03-27T14:11:50.779Z,1004.37
2018-03-27T14:13:43.721Z,1004.34
2018-03-27T14:14:43.721Z,1004.34
2018-03-27T14:16:36.631Z,1004.33
2018-03-27T14:17:36.654Z,1004.31
2018-03-27T14:19:29.578Z,1004.22
2018-03-27T14:20:29.581Z,1004.24
2018-03-27T14:22:22.491Z,1004.20
2018-03-27T14:23:22.509Z,1004.20
2018-03-27T14:25:15.439Z,1004.20
2018-03-27T14:26:15.440Z,1004.20
2018-03-27T14:28:08.368Z,1004.11
2018-03-27T14:29:08.372Z,1004.14
2018-03-27T14:31:01.279Z,1004.13
2018-03-27T14:32:01.301Z,1004.12
2018-03-27T14:33:54.226Z,1004.14
2018-03-27T14:34:54.269Z,1004.05
2018-03-27T14:36:47.136Z,1004.06
2018-03-27T14:37:47.158Z,1004.02
2018-03-27T14:39:40.083Z,1003.99
2018-03-27T14:40:40.091Z,1003.96
2018-03-27T14:42:32.992Z,1004.00
2018-03-27T14:43:33.010Z,1003.97
2018-03-27T14:45:25.938Z,1003.90
2018-03-27T14:46:25.944Z,1003.88
2018-03-27T14:48:18.869Z,1003.88
2018-03-27T14:49:18.868Z,1003.84
2018-03-27T14:51:11.774Z,1003.81
2018-03-27T14:52:11.793Z,1003.82
2018-03-27T14:54:04.719Z,1003.78
2018-03-27T14:55:04.724Z,1003.72
2018-03-27T14:56:57.630Z,1003.70
2018-03-27T14:57:57.653Z,1003.66
2018-03-27T14:59:50.577Z,1003.64
2018-03-27T15:00:50.584Z,1003.66
2018-03-27T15:02:43.492Z,1003.61
2018-03-27T15:03:43.511Z,1003.60
2018-03-27T15:05:36.463Z,1003.55
2018-03-27T15:06:36.443Z,1003.50
2018-03-27T15:08:29.581Z,1003.50
2018-03-27T15:09:29.625Z,1003.47
2018-03-27T15:11:22.494Z,1003.42
2018-03-27T15:12:22.550Z,1003.42
2018-03-27T15:14:15.479Z,1003.43
2018-03-27T15:15:15.510Z,1003.33
2018-03-27T15:17:08.413Z,1003.34
2018-03-27T15:18:08.381Z,1003.32
2018-03-27T15:20:01.341Z,1003.30
2018-03-27T15:21:01.364Z,1003.28
2018-03-27T15:22:54.252Z,1003.26
2018-03-27T15:23:54.246Z,1003.23
2018-03-27T15:25:47.172Z,1003.20
2018-03-27T15:26:47.180Z,1003.16
2018-03-27T15:28:40.146Z,1003.16
2018-03-27T15:29:40.104Z,1003.14
2018-03-27T15:31:33.055Z,1003.08
2018-03-27T15:32:33.077Z,1003.05
2018-03-27T15:34:25.965Z,1003.01
2018-03-27T15:35:26.005Z,1003.02
2018-03-27T15:37:19.873Z,1003.01
2018-03-27T15:38:19.910Z,1003.00
2018-03-27T15:40:12.817Z,1002.94
2018-03-27T15:41:12.823Z,1002.96
2018-03-27T15:43:05.735Z,1002.91
2018-03-27T15:44:05.756Z,1002.85
2018-03-27T15:45:58.679Z,1002.86
2018-03-27T15:46:58.681Z,1002.82
2018-03-27T15:48:51.629Z,1002.82
2018-03-27T15:49:51.610Z,1002.84
2018-03-27T15:51:44.516Z,1002.82
2018-03-27T15:52:44.535Z,1002.82
2018-03-27T15:54:37.465Z,1002.77
2018-03-27T15:55:37.471Z,1002.79
2018-03-27T15:57:30.377Z,1002.79
2018-03-27T15:58:30.399Z,1002.78
2018-03-27T16:00:23.322Z,1002.77
2018-03-27T16:01:23.322Z,1002.80
2018-03-27T16:03:16.230Z,1002.81
2018-03-27T16:04:16.249Z,1002.75
2018-03-27T16:06:09.174Z,1002.88
2018-03-27T16:07:09.177Z,1002.90
2018-03-27T16:09:02.300Z,1002.79
2018-03-27T16:10:02.298Z,1002.80
2018-03-27T16:11:55.208Z,1002.76
2018-03-27T16:12:55.222Z,1002.78
2018-03-27T16:14:48.163Z,1002.73
2018-03-27T16:15:48.163Z,1002.72
2018-03-27T16:17:41.065Z,1002.70
2018-03-27T16:18:41.082Z,1002.71
2018-03-27T16:20:34.019Z,1002.70
2018-03-27T16:21:34.024Z,1002.69
2018-03-27T16:23:26.921Z,1002.67
2018-03-27T16:24:26.940Z,1002.66
2018-03-27T16:26:20.069Z,1002.66
2018-03-27T16:27:20.124Z,1002.68
2018-03-27T16:29:12.992Z,1002.65
2018-03-27T16:30:12.994Z,1002.66
2018-03-27T16:32:05.908Z,1002.66
2018-03-27T16:33:06.003Z,1002.65
2018-03-27T16:34:58.852Z,1002.64
2018-03-27T16:35:58.851Z,1002.60
2018-03-27T16:37:51.798Z,1002.63
2018-03-27T16:38:51.779Z,1002.66
2018-03-27T16:40:45.703Z,1002.64
2018-03-27T16:41:45.704Z,1002.58
2018-03-27T16:43:38.958Z,1002.55
2018-03-27T16:44:38.908Z,1002.58
2018-03-27T16:46:31.832Z,1002.55
2018-03-27T16:47:31.830Z,1002.52
2018-03-27T16:49:24.754Z,1002.52
2018-03-27T16:50:24.772Z,1002.50
2018-03-27T16:52:17.658Z,1002.41
2018-03-27T16:53:17.678Z,1002.44
2018-03-27T16:55:10.720Z,1002.41
2018-03-27T16:56:10.725Z,1002.47
2018-03-27T16:58:03.628Z,1002.42
2018-03-27T16:59:03.647Z,1002.39
2018-03-27T17:00:56.568Z,1002.40
2018-03-27T17:01:56.573Z,1002.44
2018-03-27T17:03:49.474Z,1002.45
2018-03-27T17:04:49.497Z,1002.43
2018-03-27T17:06:42.417Z,1002.49
2018-03-27T17:07:42.418Z,1002.47
2018-03-27T17:09:35.340Z,1002.42
2018-03-27T17:10:35.353Z,1002.45
2018-03-27T17:12:28.248Z,1002.42
2018-03-27T17:13:28.267Z,1002.44
2018-03-27T17:15:21.192Z,1002.48
2018-03-27T17:16:21.187Z,1002.48
2018-03-27T17:18:14.097Z,1002.45
2018-03-27T17:19:14.117Z,1002.41
2018-03-27T17:21:07.039Z,1002.42
2018-03-27T17:22:07.039Z,1002.41
2018-03-27T17:23:59.943Z,1002.42
2018-03-27T17:24:59.970Z,1002.42
2018-03-27T17:26:52.887Z,1002.44
2018-03-27T17:27:52.892Z,1002.41